createdAt,value
2023-05-17T00:03:23.186Z,2.00
2023-05-17T00:08:24.761Z,1.70
2023-05-17T00:13:26.370Z,1.63
2023-05-17T00:18:28.087Z,1.70
2023-05-17T00:23:29.746Z,1.73
2023-05-17T00:28:31.380Z,1.80
2023-05-17T00:33:33.060Z,1.60
2023-05-17T00:38:34.763Z,1.90
2023-05-17T00:43:36.514Z,1.40
2023-05-17T00:48:38.316Z,1.45
2023-05-17T00:53:40.299Z,1.60
2023-05-17T00:58:41.957Z,1.73
2023-05-17T01:03:43.848Z,1.65
2023-05-17T01:08:47.996Z,1.60
2023-05-17T01:13:55.989Z,1.80
2023-05-17T01:19:30.253Z,1.52
2023-05-17T01:24:51.573Z,1.55
2023-05-17T01:29:55.166Z,1.50
2023-05-17T01:34:56.787Z,1.60
2023-05-17T01:39:58.448Z,1.58
2023-05-17T01:45:06.627Z,1.77
2023-05-17T01:50:09.376Z,2.00
2023-05-17T01:55:18.805Z,1.40
2023-05-17T02:00:20.936Z,1.60
2023-05-17T02:05:22.580Z,1.90
2023-05-17T02:10:24.312Z,1.50
2023-05-17T02:15:26.122Z,1.73
2023-05-17T02:20:27.813Z,1.60
2023-05-17T02:25:29.753Z,1.60
2023-05-17T02:30:31.873Z,1.73
2023-05-17T02:35:33.728Z,1.95
2023-05-17T02:40:35.411Z,1.92
2023-05-17T02:45:37.833Z,1.98
2023-05-17T02:50:40.342Z,2.33
2023-05-17T02:55:41.970Z,1.83
2023-05-17T03:00:46.500Z,1.98
2023-05-17T03:05:49.721Z,2.47
2023-05-17T03:10:52.315Z,2.45
2023-05-17T03:15:54.371Z,2.55
2023-05-17T03:20:56.714Z,2.15
2023-05-17T03:25:58.588Z,2.60
2023-05-17T03:31:02.896Z,2.20
2023-05-17T03:36:07.747Z,2.25
2023-05-17T03:41:10.596Z,2.60
2023-05-17T03:46:12.954Z,2.55
2023-05-17T03:51:16.098Z,2.22
2023-05-17T03:56:18.836Z,2.60
2023-05-17T04:01:20.770Z,2.90
2023-05-17T04:06:23.369Z,2.20
2023-05-17T04:11:27.304Z,2.40
2023-05-17T04:16:29.927Z,2.42
2023-05-17T04:21:31.729Z,2.60
2023-05-17T04:26:33.445Z,2.30
2023-05-17T04:31:35.192Z,2.88
2023-05-17T04:36:37.101Z,2.50
2023-05-17T04:41:39.696Z,2.33
2023-05-17T04:46:45.873Z,2.70
2023-05-17T04:51:48.534Z,2.50
2023-05-17T04:56:50.725Z,2.67
2023-05-17T05:02:06.792Z,2.47
2023-05-17T05:07:09.383Z,2.72
2023-05-17T05:12:11.393Z,3.10
2023-05-17T05:17:17.653Z,2.90
2023-05-17T05:22:21.042Z,2.67
2023-05-17T05:27:22.741Z,3.00
2023-05-17T05:32:25.865Z,3.53
2023-05-17T05:37:28.417Z,3.10
2023-05-17T05:42:31.111Z,3.30
2023-05-17T05:47:33.045Z,3.10
2023-05-17T05:52:34.864Z,4.10
2023-05-17T05:57:36.716Z,3.88
2023-05-17T06:02:38.692Z,3.45
2023-05-17T06:07:40.389Z,3.25
2023-05-17T06:12:42.024Z,3.80
2023-05-17T06:17:43.830Z,3.97
2023-05-17T06:22:45.522Z,3.45
2023-05-17T06:27:47.195Z,3.80
2023-05-17T06:32:48.884Z,3.88
2023-05-17T06:37:50.798Z,3.42
2023-05-17T06:42:52.562Z,3.80
2023-05-17T06:47:54.354Z,4.28
2023-05-17T06:52:56.018Z,3.92
2023-05-17T06:57:57.713Z,3.97
2023-05-17T07:02:59.429Z,4.22
2023-05-17T07:08:01.514Z,3.92
2023-05-17T07:13:03.201Z,4.78
2023-05-17T07:18:05.030Z,3.80
2023-05-17T07:23:06.961Z,3.92
2023-05-17T07:28:08.595Z,4.28
2023-05-17T07:33:10.315Z,3.97
2023-05-17T07:38:12.082Z,3.83
2023-05-17T07:43:13.706Z,3.60
2023-05-17T07:48:15.595Z,4.35
2023-05-17T07:53:17.403Z,3.80
2023-05-17T07:58:19.125Z,3.63
2023-05-17T08:03:21.509Z,3.95
2023-05-17T08:08:23.223Z,3.67
2023-05-17T08:13:24.842Z,3.40
2023-05-17T08:18:26.725Z,3.53
2023-05-17T08:23:28.449Z,3.13
2023-05-17T08:28:30.083Z,3.50
2023-05-17T08:33:31.885Z,3.20
2023-05-17T08:38:34.485Z,2.35
2023-05-17T08:43:36.305Z,2.88
2023-05-17T08:48:41.983Z,2.78
2023-05-17T08:53:47.081Z,3.03
2023-05-17T08:58:57.138Z,2.85
2023-05-17T09:04:00.476Z,3.05
2023-05-17T09:09:02.171Z,3.35
2023-05-17T09:14:06.272Z,3.17
2023-05-17T09:19:09.633Z,4.03
2023-05-17T09:24:11.290Z,3.22
2023-05-17T09:29:16.553Z,3.33
2023-05-17T09:34:19.189Z,3.30
2023-05-17T09:39:20.965Z,3.35
2023-05-17T09:44:23.449Z,3.42
2023-05-17T09:49:27.387Z,3.35
2023-05-17T09:54:32.187Z,3.00
2023-05-17T09:59:33.969Z,3.50
2023-05-17T10:04:37.615Z,3.55
2023-05-17T10:09:39.540Z,2.88
2023-05-17T10:14:41.186Z,3.22
2023-05-17T10:19:43.592Z,3.00
2023-05-17T10:24:46.576Z,3.13
2023-05-17T10:29:50.611Z,3.15
2023-05-17T10:35:05.936Z,3.20
2023-05-17T10:40:15.148Z,3.05
2023-05-17T10:45:16.870Z,2.65
2023-05-17T10:50:26.973Z,2.60
2023-05-17T10:55:41.250Z,2.67
2023-05-17T11:00:48.199Z,2.97
2023-05-17T11:06:22.028Z,2.95
2023-05-17T11:11:25.483Z,3.30
2023-05-17T11:16:37.957Z,3.13
2023-05-17T11:21:49.154Z,2.25
2023-05-17T11:26:51.398Z,2.63
2023-05-17T11:31:53.296Z,2.75
2023-05-17T11:36:55.784Z,2.65
2023-05-17T11:41:57.788Z,2.42
2023-05-17T11:47:09.535Z,2.35
2023-05-17T11:52:11.523Z,2.75
2023-05-17T11:57:16.701Z,2.83
2023-05-17T12:02:32.540Z,2.10
2023-05-17T12:07:34.483Z,2.33
2023-05-17T12:12:36.134Z,2.60
2023-05-17T12:17:42.804Z,2.50
2023-05-17T12:22:57.179Z,2.30
2023-05-17T12:28:18.574Z,2.80
2023-05-17T12:33:20.753Z,2.28
2023-05-17T12:38:22.653Z,2.17
2023-05-17T12:43:24.811Z,2.38
2023-05-17T12:48:27.226Z,2.17
2023-05-17T12:53:36.336Z,1.88
2023-05-17T12:58:37.942Z,2.10
2023-05-17T13:03:40.293Z,2.33
2023-05-17T13:08:44.089Z,1.95
2023-05-17T13:13:46.163Z,2.20
2023-05-17T13:18:52.182Z,1.85
2023-05-17T13:23:53.950Z,2.17
2023-05-17T13:28:55.652Z,2.17
2023-05-17T13:33:57.454Z,2.50
2023-05-17T13:39:02.244Z,2.15
2023-05-17T13:44:03.907Z,2.60
2023-05-17T13:49:07.637Z,2.53
2023-05-17T13:54:10.496Z,2.05
2023-05-17T13:59:12.188Z,2.15
2023-05-17T14:04:13.986Z,2.63
2023-05-17T14:09:15.810Z,2.15
2023-05-17T14:14:17.430Z,1.77
2023-05-17T14:19:19.216Z,2.13
2023-05-17T14:24:21.130Z,2.55
2023-05-17T14:29:22.775Z,2.22
2023-05-17T14:34:24.478Z,2.40
2023-05-17T14:39:26.263Z,2.20
2023-05-17T14:44:27.866Z,2.45
2023-05-17T14:49:29.482Z,2.20
2023-05-17T14:54:32.857Z,2.17
2023-05-17T14:59:35.767Z,1.88
2023-05-17T15:04:37.723Z,2.10
2023-05-17T15:09:41.472Z,2.00
2023-05-17T15:14:44.042Z,1.92
2023-05-17T15:19:45.774Z,2.10
2023-05-17T15:24:47.550Z,1.90
2023-05-17T15:29:49.157Z,2.28
2023-05-17T15:34:51.904Z,2.10
2023-05-17T15:39:53.574Z,2.15
2023-05-17T15:44:55.162Z,1.98
2023-05-17T15:49:58.202Z,2.15
2023-05-17T15:54:59.872Z,2.28
2023-05-17T16:00:01.940Z,2.00
2023-05-17T16:05:04.282Z,2.20
2023-05-17T16:10:06.706Z,2.10
2023-05-17T16:15:09.385Z,2.22
2023-05-17T16:20:12.125Z,2.00
2023-05-17T16:25:24.435Z,2.17
2023-05-17T16:30:26.431Z,2.05
2023-05-17T16:35:28.744Z,2.28
2023-05-17T16:40:30.715Z,2.33
2023-05-17T16:45:32.581Z,1.83
2023-05-17T16:50:34.263Z,2.22
2023-05-17T16:55:36.338Z,1.70
2023-05-17T17:00:38.015Z,1.92
2023-05-17T17:05:39.706Z,1.90
2023-05-17T17:10:41.348Z,2.00
2023-05-17T17:15:42.950Z,2.70
2023-05-17T17:20:45.187Z,1.88
2023-05-17T17:25:46.813Z,1.80
2023-05-17T17:30:48.537Z,2.10
2023-05-17T17:35:50.202Z,2.10
2023-05-17T17:40:51.914Z,1.90
2023-05-17T17:45:53.516Z,2.30
2023-05-17T17:50:55.613Z,2.05
2023-05-17T17:55:57.229Z,2.10
2023-05-17T18:00:58.898Z,2.20
2023-05-17T18:06:00.536Z,2.03
2023-05-17T18:11:02.524Z,2.00
2023-05-17T18:16:04.504Z,2.15
2023-05-17T18:21:07.950Z,2.80
2023-05-17T18:26:09.667Z,2.10
2023-05-17T18:31:11.430Z,2.08
2023-05-17T18:36:13.329Z,2.10
2023-05-17T18:41:14.986Z,1.88
2023-05-17T18:46:16.669Z,2.05
2023-05-17T18:51:18.334Z,2.08
2023-05-17T18:56:22.846Z,2.33
2023-05-17T19:01:25.175Z,2.30
2023-05-17T19:06:29.611Z,2.35
2023-05-17T19:11:32.447Z,2.85
2023-05-17T19:16:34.080Z,2.70
2023-05-17T19:21:35.727Z,2.58
2023-05-17T19:26:37.403Z,2.65
2023-05-17T19:31:39.052Z,2.75
2023-05-17T19:36:40.749Z,3.30
2023-05-17T19:41:42.390Z,2.72
2023-05-17T19:46:44.151Z,2.40
2023-05-17T19:51:46.700Z,2.50
2023-05-17T19:56:48.360Z,2.45
2023-05-17T20:01:50.566Z,2.45
2023-05-17T20:06:52.392Z,2.58
2023-05-17T20:11:54.126Z,2.92
2023-05-17T20:16:56.190Z,2.85
2023-05-17T20:21:57.956Z,2.67
2023-05-17T20:26:59.646Z,2.85
2023-05-17T20:32:01.483Z,2.88
2023-05-17T20:37:03.169Z,3.20
2023-05-17T20:42:05.320Z,3.22
2023-05-17T20:47:09.179Z,3.10
2023-05-17T20:52:11.107Z,3.15
2023-05-17T20:57:12.769Z,3.28
2023-05-17T21:02:14.492Z,3.10
2023-05-17T21:07:17.423Z,2.85
2023-05-17T21:12:19.048Z,3.08
2023-05-17T21:17:20.678Z,2.60
2023-05-17T21:22:22.344Z,3.22
2023-05-17T21:27:23.981Z,2.70
2023-05-17T21:32:26.527Z,2.72
2023-05-17T21:37:28.163Z,2.70
2023-05-17T21:42:29.802Z,2.78
2023-05-17T21:47:31.549Z,2.90
2023-05-17T21:52:33.438Z,2.60
2023-05-17T21:57:36.533Z,3.25
2023-05-17T22:02:42.191Z,2.80
2023-05-17T22:07:44.049Z,2.38
2023-05-17T22:12:46.720Z,2.40
2023-05-17T22:17:52.843Z,2.30
2023-05-17T22:22:55.153Z,2.63
2023-05-17T22:27:56.772Z,2.40
2023-05-17T22:32:58.441Z,2.47
2023-05-17T22:38:00.063Z,2.50
2023-05-17T22:43:01.740Z,2.55
2023-05-17T22:48:05.613Z,2.10
2023-05-17T22:53:07.336Z,2.53
2023-05-17T22:58:08.976Z,2.40
2023-05-17T23:03:13.784Z,2.88
2023-05-17T23:08:15.702Z,2.20
2023-05-17T23:13:17.845Z,2.50
2023-05-17T23:18:19.670Z,2.25
2023-05-17T23:23:23.105Z,2.65
2023-05-17T23:28:25.495Z,2.58
2023-05-17T23:33:31.083Z,2.60
2023-05-17T23:38:32.807Z,2.47
2023-05-17T23:43:34.740Z,2.35
2023-05-17T23:48:36.321Z,2.47
2023-05-17T23:53:38.037Z,2.60
2023-05-17T23:58:39.691Z,2.58
